Duluth, Kansas
Current Conditions -  °F | °C
As of 5:52 AM on Friday 19 Dec 2014 (Local Time) from KMHK Reporting Station
Overcast Overcast  
Wind Chill: 30°   Ceiling: 800
Heat Index: 30°   Visibility: 9mi
Dew Point: 29°   Wind: 3mph
Humidity: 96%   Direction: 220°SW
Pressure: 30.23"   Gusts: NA
Location:  39.4299°N, 96.1804°W
Report Text: KMHK 191152Z AUTO 22003KT 9SM OVC008 M01/M02 A3023 RMK AO2 SLP246 70001 T10111017 11006 21011 56008 TSNO
Loading
Personal Weather Stations






























Interactive Weather Map New forecast layout! Learn more

10-Day Weather Forecast

Advertisements
Track Severe Weather on mobile